sensor_id;sensor_type;location;lat;lon;timestamp;pressure;altitude;pressure_sealevel;temperature;humidity
8360;BME280;4217;48.762;11.428;2022-12-18T00:05:09;98839.44;;;-1.60;60.92
8360;BME280;4217;48.762;11.428;2022-12-18T00:15:10;98846.13;;;-1.48;60.78
8360;BME280;4217;48.762;11.428;2022-12-18T00:25:12;98811.91;;;-1.40;60.70
8360;BME280;4217;48.762;11.428;2022-12-18T00:35:13;98841.69;;;-1.17;60.19
8360;BME280;4217;48.762;11.428;2022-12-18T00:45:15;98813.00;;;-1.24;60.79
8360;BME280;4217;48.762;11.428;2022-12-18T00:55:17;98830.13;;;-1.32;61.53
8360;BME280;4217;48.762;11.428;2022-12-18T01:05:20;98843.72;;;-0.82;60.67
8360;BME280;4217;48.762;11.428;2022-12-18T01:15:22;98849.56;;;-0.70;60.37
8360;BME280;4217;48.762;11.428;2022-12-18T01:25:23;98864.13;;;-0.60;59.92
8360;BME280;4217;48.762;11.428;2022-12-18T01:35:25;98880.31;;;-0.67;60.75
8360;BME280;4217;48.762;11.428;2022-12-18T01:45:29;98878.78;;;-0.41;60.04
8360;BME280;4217;48.762;11.428;2022-12-18T01:55:36;98884.09;;;-0.52;60.21
8360;BME280;4217;48.762;11.428;2022-12-18T02:05:49;98873.88;;;-0.44;60.45
8360;BME280;4217;48.762;11.428;2022-12-18T02:16:13;98877.84;;;-0.59;60.90
8360;BME280;4217;48.762;11.428;2022-12-18T02:26:53;98873.91;;;-0.73;61.34
8360;BME280;4217;48.762;11.428;2022-12-18T02:36:57;98861.94;;;-0.64;61.42
8360;BME280;4217;48.762;11.428;2022-12-18T02:47:01;98866.09;;;-0.25;60.92
8360;BME280;4217;48.762;11.428;2022-12-18T02:57:15;98873.84;;;-0.15;60.60
8360;BME280;4217;48.762;11.428;2022-12-18T03:07:26;98860.09;;;-0.16;60.75
8360;BME280;4217;48.762;11.428;2022-12-18T03:17:32;98868.88;;;0.01;60.27
8360;BME280;4217;48.762;11.428;2022-12-18T03:27:37;98856.94;;;-0.19;60.79
8360;BME280;4217;48.762;11.428;2022-12-18T03:37:43;98870.13;;;-0.03;60.77
8360;BME280;4217;48.762;11.428;2022-12-18T03:58:13;98859.75;;;0.34;60.25
8360;BME280;4217;48.762;11.428;2022-12-18T04:08:27;98877.47;;;0.38;59.96
8360;BME280;4217;48.762;11.428;2022-12-18T04:18:37;98860.06;;;0.31;59.79
8360;BME280;4217;48.762;11.428;2022-12-18T04:28:39;98874.28;;;0.45;60.32
8360;BME280;4217;48.762;11.428;2022-12-18T04:38:41;98908.41;;;0.30;59.85
8360;BME280;4217;48.762;11.428;2022-12-18T04:48:46;98896.38;;;0.66;59.66
8360;BME280;4217;48.762;11.428;2022-12-18T04:58:48;98885.88;;;0.68;59.75
8360;BME280;4217;48.762;11.428;2022-12-18T05:08:50;98900.59;;;0.67;59.68
8360;BME280;4217;48.762;11.428;2022-12-18T05:18:51;98912.28;;;0.44;59.83
8360;BME280;4217;48.762;11.428;2022-12-18T05:28:53;98909.84;;;0.70;59.98
8360;BME280;4217;48.762;11.428;2022-12-18T05:38:54;98916.81;;;0.69;59.37
8360;BME280;4217;48.762;11.428;2022-12-18T05:48:59;98934.56;;;0.64;59.86
8360;BME280;4217;48.762;11.428;2022-12-18T05:59:01;98915.41;;;0.75;59.86
8360;BME280;4217;48.762;11.428;2022-12-18T06:09:03;98916.13;;;0.67;59.52
8360;BME280;4217;48.762;11.428;2022-12-18T06:19:14;98924.53;;;0.52;60.20
8360;BME280;4217;48.762;11.428;2022-12-18T06:29:16;98938.28;;;0.52;60.25
8360;BME280;4217;48.762;11.428;2022-12-18T06:39:18;98943.63;;;0.78;59.43
8360;BME280;4217;48.762;11.428;2022-12-18T06:49:20;98941.53;;;0.82;59.53
8360;BME280;4217;48.762;11.428;2022-12-18T06:59:27;98971.53;;;0.47;60.33
8360;BME280;4217;48.762;11.428;2022-12-18T07:09:29;98966.44;;;0.65;59.95
8360;BME280;4217;48.762;11.428;2022-12-18T07:19:30;98979.91;;;0.68;60.18
8360;BME280;4217;48.762;11.428;2022-12-18T07:29:32;98972.34;;;0.85;59.88
8360;BME280;4217;48.762;11.428;2022-12-18T07:39:34;98967.19;;;0.75;60.09
8360;BME280;4217;48.762;11.428;2022-12-18T07:49:35;98971.44;;;1.21;59.70
8360;BME280;4217;48.762;11.428;2022-12-18T07:59:37;98976.41;;;1.32;59.29
8360;BME280;4217;48.762;11.428;2022-12-18T08:09:39;98984.13;;;1.77;58.49
8360;BME280;4217;48.762;11.428;2022-12-18T08:19:40;98999.91;;;1.84;58.43
8360;BME280;4217;48.762;11.428;2022-12-18T08:29:42;99012.94;;;1.92;58.51
8360;BME280;4217;48.762;11.428;2022-12-18T08:39:45;99016.16;;;2.29;57.67
8360;BME280;4217;48.762;11.428;2022-12-18T08:49:47;99030.03;;;2.98;56.17
8360;BME280;4217;48.762;11.428;2022-12-18T08:59:48;99022.22;;;2.98;55.24
8360;BME280;4217;48.762;11.428;2022-12-18T09:09:50;99016.63;;;3.18;55.37
8360;BME280;4217;48.762;11.428;2022-12-18T09:19:52;99011.66;;;3.41;54.47
8360;BME280;4217;48.762;11.428;2022-12-18T09:29:53;99000.13;;;3.44;53.74
8360;BME280;4217;48.762;11.428;2022-12-18T09:39:55;99001.44;;;3.64;52.10
8360;BME280;4217;48.762;11.428;2022-12-18T09:50:04;98978.53;;;3.76;52.38
8360;BME280;4217;48.762;11.428;2022-12-18T10:00:17;98969.75;;;3.85;51.60
8360;BME280;4217;48.762;11.428;2022-12-18T10:10:38;98964.06;;;3.73;51.95
8360;BME280;4217;48.762;11.428;2022-12-18T10:20:49;98965.28;;;4.58;50.06
8360;BME280;4217;48.762;11.428;2022-12-18T10:30:53;98966.06;;;5.37;49.08
8360;BME280;4217;48.762;11.428;2022-12-18T10:41:03;98966.47;;;5.48;47.61
8360;BME280;4217;48.762;11.428;2022-12-18T10:51:07;98955.16;;;6.02;45.77
8360;BME280;4217;48.762;11.428;2022-12-18T11:01:16;98957.88;;;5.85;45.92
8360;BME280;4217;48.762;11.428;2022-12-18T11:11:22;98957.25;;;5.60;45.49
8360;BME280;4217;48.762;11.428;2022-12-18T11:21:25;98954.75;;;5.44;46.25
8360;BME280;4217;48.762;11.428;2022-12-18T11:31:28;98947.03;;;6.34;45.10
8360;BME280;4217;48.762;11.428;2022-12-18T11:41:35;98931.09;;;5.69;44.66
8360;BME280;4217;48.762;11.428;2022-12-18T11:52:15;98939.41;;;5.49;45.78
8360;BME280;4217;48.762;11.428;2022-12-18T12:02:24;98923.66;;;6.18;45.60
8360;BME280;4217;48.762;11.428;2022-12-18T12:33:48;98903.41;;;5.82;45.07
8360;BME280;4217;48.762;11.428;2022-12-18T12:43:52;98907.66;;;5.83;45.00
8360;BME280;4217;48.762;11.428;2022-12-18T12:53:58;98906.44;;;5.71;45.26
8360;BME280;4217;48.762;11.428;2022-12-18T13:14:22;98914.59;;;5.31;46.19
8360;BME280;4217;48.762;11.428;2022-12-18T13:24:28;98897.13;;;5.54;46.36
8360;BME280;4217;48.762;11.428;2022-12-18T13:34:32;98879.53;;;5.71;45.65
8360;BME280;4217;48.762;11.428;2022-12-18T13:44:36;98885.78;;;5.24;46.15
8360;BME280;4217;48.762;11.428;2022-12-18T13:54:42;98890.78;;;4.72;46.85
8360;BME280;4217;48.762;11.428;2022-12-18T14:04:48;98897.16;;;4.14;47.96
8360;BME280;4217;48.762;11.428;2022-12-18T14:14:52;98908.13;;;3.77;48.76
8360;BME280;4217;48.762;11.428;2022-12-18T14:25:14;98908.09;;;3.37;49.58
8360;BME280;4217;48.762;11.428;2022-12-18T14:35:17;98903.88;;;3.19;50.27
8360;BME280;4217;48.762;11.428;2022-12-18T14:45:51;98902.16;;;2.86;50.84
8360;BME280;4217;48.762;11.428;2022-12-18T14:55:53;98903.13;;;2.85;51.56
8360;BME280;4217;48.762;11.428;2022-12-18T15:05:56;98907.53;;;2.43;51.92
8360;BME280;4217;48.762;11.428;2022-12-18T15:16:01;98918.13;;;2.49;51.93
8360;BME280;4217;48.762;11.428;2022-12-18T15:26:05;98916.81;;;2.53;52.33
8360;BME280;4217;48.762;11.428;2022-12-18T15:36:12;98928.19;;;2.52;52.18
8360;BME280;4217;48.762;11.428;2022-12-18T15:46:19;98924.75;;;2.18;52.80
8360;BME280;4217;48.762;11.428;2022-12-18T15:56:21;98922.75;;;2.12;53.35
8360;BME280;4217;48.762;11.428;2022-12-18T16:06:41;98931.81;;;1.82;53.82
8360;BME280;4217;48.762;11.428;2022-12-18T16:17:05;98926.97;;;1.87;53.84
8360;BME280;4217;48.762;11.428;2022-12-18T16:27:07;98910.47;;;1.88;53.84
8360;BME280;4217;48.762;11.428;2022-12-18T16:37:11;98906.69;;;1.82;53.79
8360;BME280;4217;48.762;11.428;2022-12-18T16:47:13;98912.69;;;1.83;53.99
8360;BME280;4217;48.762;11.428;2022-12-18T16:57:18;98907.97;;;1.60;54.54
8360;BME280;4217;48.762;11.428;2022-12-18T17:07:21;98911.84;;;1.39;54.44
8360;BME280;4217;48.762;11.428;2022-12-18T17:17:23;98913.03;;;1.27;55.06
8360;BME280;4217;48.762;11.428;2022-12-18T17:27:24;98903.41;;;1.19;55.31
8360;BME280;4217;48.762;11.428;2022-12-18T17:37:26;98900.38;;;1.41;55.39
8360;BME280;4217;48.762;11.428;2022-12-18T17:47:28;98901.09;;;1.51;54.87
8360;BME280;4217;48.762;11.428;2022-12-18T17:57:29;98886.97;;;1.10;55.82
8360;BME280;4217;48.762;11.428;2022-12-18T18:07:31;98890.88;;;1.14;55.85
8360;BME280;4217;48.762;11.428;2022-12-18T18:17:33;98897.47;;;1.27;55.45
8360;BME280;4217;48.762;11.428;2022-12-18T18:27:34;98891.34;;;1.10;55.88
8360;BME280;4217;48.762;11.428;2022-12-18T18:37:39;98881.13;;;1.08;56.18
8360;BME280;4217;48.762;11.428;2022-12-18T18:47:42;98886.47;;;1.25;55.94
8360;BME280;4217;48.762;11.428;2022-12-18T18:57:43;98884.81;;;1.06;56.28
8360;BME280;4217;48.762;11.428;2022-12-18T19:07:46;98885.06;;;1.30;56.53
8360;BME280;4217;48.762;11.428;2022-12-18T19:17:47;98885.53;;;1.51;55.76
8360;BME280;4217;48.762;11.428;2022-12-18T19:27:49;98865.25;;;1.47;55.47
8360;BME280;4217;48.762;11.428;2022-12-18T19:37:51;98868.53;;;1.49;55.66
8360;BME280;4217;48.762;11.428;2022-12-18T19:47:52;98861.13;;;1.36;55.39
8360;BME280;4217;48.762;11.428;2022-12-18T19:57:55;98847.44;;;1.44;55.59
8360;BME280;4217;48.762;11.428;2022-12-18T20:07:57;98856.66;;;1.46;55.81
8360;BME280;4217;48.762;11.428;2022-12-18T20:17:58;98846.09;;;1.40;55.97
8360;BME280;4217;48.762;11.428;2022-12-18T20:28:00;98843.75;;;1.11;55.68
8360;BME280;4217;48.762;11.428;2022-12-18T20:38:02;98845.56;;;1.18;55.83
8360;BME280;4217;48.762;11.428;2022-12-18T20:48:05;98833.25;;;1.38;55.94
8360;BME280;4217;48.762;11.428;2022-12-18T20:58:06;98856.31;;;1.41;55.83
8360;BME280;4217;48.762;11.428;2022-12-18T21:08:08;98838.09;;;1.33;56.31
8360;BME280;4217;48.762;11.428;2022-12-18T21:18:13;98818.09;;;1.26;56.08
8360;BME280;4217;48.762;11.428;2022-12-18T21:28:15;98815.47;;;0.82;57.20
8360;BME280;4217;48.762;11.428;2022-12-18T21:38:17;98814.72;;;0.27;57.85
8360;BME280;4217;48.762;11.428;2022-12-18T21:48:18;98822.91;;;0.22;57.83
8360;BME280;4217;48.762;11.428;2022-12-18T21:58:20;98817.41;;;-0.39;57.76
8360;BME280;4217;48.762;11.428;2022-12-18T22:08:21;98808.75;;;-0.48;57.86
8360;BME280;4217;48.762;11.428;2022-12-18T22:18:23;98827.44;;;-0.73;57.96
8360;BME280;4217;48.762;11.428;2022-12-18T22:28:24;98804.31;;;-0.74;57.65
8360;BME280;4217;48.762;11.428;2022-12-18T22:38:45;98805.06;;;-0.45;57.26
8360;BME280;4217;48.762;11.428;2022-12-18T22:48:48;98778.41;;;-0.46;57.24
8360;BME280;4217;48.762;11.428;2022-12-18T22:58:50;98778.13;;;-0.33;57.04
8360;BME280;4217;48.762;11.428;2022-12-18T23:08:55;98762.13;;;-0.19;57.00
8360;BME280;4217;48.762;11.428;2022-12-18T23:18:58;98767.22;;;-0.27;57.30
8360;BME280;4217;48.762;11.428;2022-12-18T23:29:00;98755.75;;;0.03;56.93
8360;BME280;4217;48.762;11.428;2022-12-18T23:39:02;98757.25;;;0.06;57.16
8360;BME280;4217;48.762;11.428;2022-12-18T23:49:04;98789.53;;;0.02;57.08
8360;BME280;4217;48.762;11.428;2022-12-18T23:59:06;98778.56;;;0.17;56.63
